createdAt,value
2018-05-12T00:00:06.457Z,28.38
2018-05-12T00:00:18.906Z,28.38
2018-05-12T00:00:31.398Z,28.38
2018-05-12T00:00:43.917Z,28.38
2018-05-12T00:00:56.326Z,28.38
2018-05-12T00:01:08.740Z,28.38
2018-05-12T00:01:21.161Z,28.38
2018-05-12T00:01:33.573Z,28.38
2018-05-12T00:01:45.990Z,28.38
2018-05-12T00:01:58.416Z,28.38
2018-05-12T00:02:10.834Z,28.38
2018-05-12T00:02:23.252Z,28.38
2018-05-12T00:02:35.668Z,28.38
2018-05-12T00:02:48.077Z,28.38
2018-05-12T00:03:00.485Z,28.38
2018-05-12T00:03:12.902Z,28.38
2018-05-12T00:03:25.333Z,28.38
2018-05-12T00:03:37.769Z,28.38
2018-05-12T00:03:50.210Z,28.38
2018-05-12T00:04:02.628Z,28.38
2018-05-12T00:04:15.041Z,28.38
2018-05-12T00:04:27.460Z,28.38
2018-05-12T00:04:39.875Z,28.38
2018-05-12T00:04:52.301Z,28.38
2018-05-12T00:05:04.716Z,28.38
2018-05-12T00:05:17.119Z,28.38
2018-05-12T00:05:29.544Z,28.38
2018-05-12T00:05:41.968Z,28.38
2018-05-12T00:05:55.137Z,28.38
2018-05-12T00:06:07.665Z,28.38
2018-05-12T00:06:20.083Z,28.38
2018-05-12T00:06:32.489Z,28.38
2018-05-12T00:06:44.906Z,28.38
2018-05-12T00:06:57.316Z,28.38
2018-05-12T00:07:09.729Z,28.38
2018-05-12T00:07:22.133Z,28.38
2018-05-12T00:07:34.637Z,28.38
2018-05-12T00:07:47.054Z,28.38
2018-05-12T00:07:59.461Z,28.38
2018-05-12T00:08:11.883Z,28.38
2018-05-12T00:08:24.365Z,28.38
2018-05-12T00:08:36.762Z,28.38
2018-05-12T00:08:49.197Z,28.38
2018-05-12T00:09:01.611Z,28.38
2018-05-12T00:09:14.022Z,28.38
2018-05-12T00:09:26.452Z,28.38
2018-05-12T00:09:38.875Z,28.38
2018-05-12T00:09:51.290Z,28.38
2018-05-12T00:10:03.757Z,28.38
2018-05-12T00:10:16.166Z,30.15
2018-05-12T00:10:28.578Z,30.15
2018-05-12T00:10:41.082Z,30.15
2018-05-12T00:10:53.497Z,30.15
2018-05-12T00:11:05.966Z,30.15
2018-05-12T00:11:18.376Z,30.15
2018-05-12T00:11:30.785Z,30.15
2018-05-12T00:11:43.301Z,30.15
2018-05-12T00:11:55.717Z,30.15
2018-05-12T00:12:08.127Z,30.15
2018-05-12T00:12:20.544Z,30.15
2018-05-12T00:12:33.091Z,30.15
2018-05-12T00:12:45.503Z,30.15
2018-05-12T00:12:57.919Z,30.15
2018-05-12T00:13:10.342Z,30.15
2018-05-12T00:13:22.763Z,30.15
2018-05-12T00:13:35.194Z,30.15
2018-05-12T00:13:47.608Z,30.15
2018-05-12T00:14:00.015Z,30.15
2018-05-12T00:14:12.467Z,30.15
2018-05-12T00:14:24.885Z,30.15
2018-05-12T00:14:37.404Z,30.15
2018-05-12T00:14:49.826Z,30.15
2018-05-12T00:15:02.879Z,30.15
2018-05-12T00:15:15.601Z,30.15
2018-05-12T00:15:28.141Z,30.15
2018-05-12T00:15:40.540Z,30.15
2018-05-12T00:15:52.960Z,30.15
2018-05-12T00:16:05.467Z,30.15
2018-05-12T00:16:17.883Z,30.15
2018-05-12T00:16:30.282Z,30.15
2018-05-12T00:16:42.707Z,30.15
2018-05-12T00:16:55.220Z,30.15
2018-05-12T00:17:07.636Z,30.15
2018-05-12T00:17:20.039Z,30.15
2018-05-12T00:17:32.462Z,30.15
2018-05-12T00:17:44.885Z,30.15
2018-05-12T00:17:57.297Z,30.15
2018-05-12T00:18:09.717Z,30.15
2018-05-12T00:18:22.356Z,30.15
2018-05-12T00:18:34.847Z,30.15
2018-05-12T00:18:47.267Z,30.15
2018-05-12T00:18:59.688Z,30.15
2018-05-12T00:19:12.086Z,30.15
2018-05-12T00:19:24.489Z,30.15
2018-05-12T00:19:36.907Z,30.15
2018-05-12T00:19:49.408Z,30.15
2018-05-12T00:20:01.813Z,30.15
2018-05-12T00:20:14.230Z,26.37
2018-05-12T00:20:26.731Z,26.37
2018-05-12T00:20:39.417Z,26.37
2018-05-12T00:20:51.841Z,26.37
2018-05-12T00:21:04.262Z,26.37
2018-05-12T00:21:16.667Z,26.37
2018-05-12T00:21:29.060Z,26.37
2018-05-12T00:21:41.479Z,26.37
2018-05-12T00:21:53.889Z,26.37
2018-05-12T00:22:06.305Z,26.37
2018-05-12T00:22:18.712Z,26.37
2018-05-12T00:22:31.124Z,26.37
2018-05-12T00:22:43.552Z,26.37
2018-05-12T00:22:55.970Z,26.37
2018-05-12T00:23:08.486Z,26.37
2018-05-12T00:23:20.895Z,26.37
2018-05-12T00:23:33.300Z,26.37
2018-05-12T00:23:45.732Z,26.37
2018-05-12T00:23:58.146Z,26.37
2018-05-12T00:24:10.562Z,26.37
2018-05-12T00:24:23.006Z,26.37
2018-05-12T00:24:35.414Z,26.37
2018-05-12T00:24:48.040Z,26.37
2018-05-12T00:25:00.455Z,26.37
2018-05-12T00:25:12.867Z,26.37
2018-05-12T00:25:25.275Z,26.37
2018-05-12T00:25:37.679Z,26.37
2018-05-12T00:25:50.106Z,26.37
2018-05-12T00:26:02.518Z,26.37
2018-05-12T00:26:14.944Z,26.37
2018-05-12T00:26:27.346Z,26.37
2018-05-12T00:26:39.768Z,26.37
2018-05-12T00:26:52.175Z,26.37
2018-05-12T00:27:04.589Z,26.37
2018-05-12T00:27:16.999Z,26.37
2018-05-12T00:27:29.412Z,26.37
2018-05-12T00:27:41.826Z,26.37
2018-05-12T00:27:54.328Z,26.37
2018-05-12T00:28:06.739Z,26.37
2018-05-12T00:28:19.145Z,26.37
2018-05-12T00:28:31.562Z,26.37
2018-05-12T00:28:44.030Z,26.37
2018-05-12T00:28:56.520Z,26.37
2018-05-12T00:29:08.931Z,26.37
2018-05-12T00:29:21.425Z,26.37
2018-05-12T00:29:33.861Z,26.37
2018-05-12T00:29:46.363Z,26.37
2018-05-12T00:29:58.771Z,26.37
2018-05-12T00:30:11.191Z,26.95
2018-05-12T00:30:23.587Z,26.95
2018-05-12T00:30:36.000Z,26.95
2018-05-12T00:30:48.406Z,26.95
2018-05-12T00:31:00.807Z,26.95
2018-05-12T00:31:13.219Z,26.95
2018-05-12T00:31:25.628Z,26.95
2018-05-12T00:31:38.122Z,26.95
2018-05-12T00:31:50.530Z,26.95
2018-05-12T00:32:02.948Z,26.95
2018-05-12T00:32:15.378Z,26.95
2018-05-12T00:32:27.781Z,26.95
2018-05-12T00:32:40.185Z,26.95
2018-05-12T00:32:52.613Z,26.95
2018-05-12T00:33:05.034Z,26.95
2018-05-12T00:33:17.449Z,26.95
2018-05-12T00:33:29.865Z,26.95
2018-05-12T00:33:42.277Z,26.95
2018-05-12T00:33:54.754Z,26.95
2018-05-12T00:34:07.238Z,26.95
2018-05-12T00:34:19.735Z,26.95
2018-05-12T00:34:32.311Z,26.95
2018-05-12T00:34:44.718Z,26.95
2018-05-12T00:34:57.137Z,26.95
2018-05-12T00:35:09.651Z,26.95
2018-05-12T00:35:22.071Z,26.95
2018-05-12T00:35:34.479Z,26.95
2018-05-12T00:35:46.941Z,26.95
2018-05-12T00:35:59.370Z,26.95
2018-05-12T00:36:11.803Z,26.95
2018-05-12T00:36:24.223Z,26.95
2018-05-12T00:36:36.645Z,26.95
2018-05-12T00:36:49.061Z,26.95
2018-05-12T00:37:01.488Z,26.95
2018-05-12T00:37:13.915Z,26.95
2018-05-12T00:37:26.328Z,26.95
2018-05-12T00:37:38.741Z,26.95
2018-05-12T00:37:51.149Z,26.95
2018-05-12T00:38:03.563Z,26.95
2018-05-12T00:38:16.039Z,26.95
2018-05-12T00:38:28.451Z,26.95
2018-05-12T00:38:40.939Z,26.95
2018-05-12T00:38:53.356Z,26.95
2018-05-12T00:39:05.772Z,26.95
2018-05-12T00:39:18.197Z,26.95
2018-05-12T00:39:30.627Z,26.95
2018-05-12T00:39:43.167Z,26.95
2018-05-12T00:39:55.586Z,26.95
2018-05-12T00:40:07.991Z,26.95
2018-05-12T00:40:20.426Z,26.2
2018-05-12T00:40:32.929Z,26.2
2018-05-12T00:40:45.337Z,26.2
2018-05-12T00:40:57.754Z,26.2
2018-05-12T00:41:10.187Z,26.2
2018-05-12T00:41:22.588Z,26.2
2018-05-12T00:41:35.006Z,26.2
2018-05-12T00:41:47.440Z,26.2
2018-05-12T00:41:59.856Z,26.2
2018-05-12T00:42:12.298Z,26.2
2018-05-12T00:42:24.711Z,26.2
2018-05-12T00:42:37.127Z,26.2
2018-05-12T00:42:49.616Z,26.2
2018-05-12T00:43:02.952Z,26.2
2018-05-12T00:43:15.729Z,26.2
2018-05-12T00:43:28.232Z,26.2
2018-05-12T00:43:40.633Z,26.2
2018-05-12T00:43:53.057Z,26.2
2018-05-12T00:44:05.471Z,26.2
2018-05-12T00:44:17.881Z,26.2
2018-05-12T00:44:30.295Z,26.2
2018-05-12T00:44:42.773Z,26.2
2018-05-12T00:44:55.190Z,26.2
2018-05-12T00:45:07.608Z,26.2
2018-05-12T00:45:20.137Z,26.2
2018-05-12T00:45:32.564Z,26.2
2018-05-12T00:45:45.057Z,26.2
2018-05-12T00:45:57.486Z,26.2
2018-05-12T00:46:09.898Z,26.2
2018-05-12T00:46:22.314Z,26.2
2018-05-12T00:46:34.722Z,26.2
2018-05-12T00:46:47.143Z,26.2
2018-05-12T00:46:59.563Z,26.2
2018-05-12T00:47:11.975Z,26.2
2018-05-12T00:47:24.490Z,26.2
2018-05-12T00:47:36.900Z,26.2
2018-05-12T00:47:49.324Z,26.2
2018-05-12T00:48:01.734Z,26.2
2018-05-12T00:48:14.324Z,26.2
2018-05-12T00:48:26.727Z,26.2
2018-05-12T00:48:39.131Z,26.2
2018-05-12T00:48:51.917Z,26.2
2018-05-12T00:49:04.324Z,26.2
2018-05-12T00:49:16.721Z,26.2
2018-05-12T00:49:29.135Z,26.2
2018-05-12T00:49:41.549Z,26.2
2018-05-12T00:49:53.979Z,26.2
2018-05-12T00:50:06.397Z,26.2
2018-05-12T00:50:18.898Z,28.23
2018-05-12T00:50:31.308Z,28.23
2018-05-12T00:50:43.816Z,28.23
2018-05-12T00:50:56.236Z,28.23
2018-05-12T00:51:08.665Z,28.23
2018-05-12T00:51:21.178Z,28.23
2018-05-12T00:51:33.591Z,28.23
2018-05-12T00:51:46.014Z,28.23
2018-05-12T00:51:58.417Z,28.23
2018-05-12T00:52:10.842Z,28.23
2018-05-12T00:52:23.251Z,28.23
2018-05-12T00:52:35.660Z,28.23
2018-05-12T00:52:48.072Z,28.23
2018-05-12T00:53:00.482Z,28.23
2018-05-12T00:53:12.901Z,28.23
2018-05-12T00:53:25.436Z,28.23
2018-05-12T00:53:37.849Z,28.23
2018-05-12T00:53:50.289Z,28.23
2018-05-12T00:54:02.708Z,28.23
2018-05-12T00:54:15.132Z,28.23
2018-05-12T00:54:27.541Z,28.23
2018-05-12T00:54:39.947Z,28.23
2018-05-12T00:54:52.356Z,28.23
2018-05-12T00:55:04.778Z,28.23
2018-05-12T00:55:17.187Z,28.23
2018-05-12T00:55:29.603Z,28.23
2018-05-12T00:55:42.013Z,28.23
2018-05-12T00:55:54.702Z,28.23
2018-05-12T00:56:07.119Z,28.23
2018-05-12T00:56:19.609Z,28.23
2018-05-12T00:56:32.010Z,28.23
2018-05-12T00:56:44.429Z,28.23
2018-05-12T00:56:56.847Z,28.23
2018-05-12T00:57:09.279Z,28.23
2018-05-12T00:57:21.694Z,28.23
2018-05-12T00:57:34.105Z,28.23
2018-05-12T00:57:46.528Z,28.23
2018-05-12T00:57:59.064Z,28.23
2018-05-12T00:58:11.508Z,28.23
2018-05-12T00:58:23.955Z,28.23
2018-05-12T00:58:36.385Z,28.23
2018-05-12T00:58:48.790Z,28.23
2018-05-12T00:59:01.211Z,28.23
2018-05-12T00:59:13.614Z,28.23
2018-05-12T00:59:26.043Z,28.23
2018-05-12T00:59:38.457Z,28.23
2018-05-12T00:59:50.870Z,28.23
2018-05-12T01:00:03.288Z,28.23
2018-05-12T01:00:15.723Z,28.67
2018-05-12T01:00:28.183Z,28.67
2018-05-12T01:00:40.622Z,28.67
2018-05-12T01:00:53.061Z,28.67
2018-05-12T01:01:05.533Z,28.67
2018-05-12T01:01:18.018Z,28.67
2018-05-12T01:01:30.427Z,28.67
2018-05-12T01:01:42.834Z,28.67
2018-05-12T01:01:55.257Z,28.67
2018-05-12T01:02:07.728Z,28.67
2018-05-12T01:02:20.144Z,28.67
2018-05-12T01:02:32.557Z,28.67
2018-05-12T01:02:44.980Z,28.67
2018-05-12T01:02:57.393Z,28.67
2018-05-12T01:03:09.813Z,28.67
2018-05-12T01:03:22.264Z,28.67
2018-05-12T01:03:34.948Z,28.67
2018-05-12T01:03:47.415Z,28.67
2018-05-12T01:03:59.915Z,28.67
2018-05-12T01:04:12.361Z,28.67
2018-05-12T01:04:24.775Z,28.67
2018-05-12T01:04:37.224Z,28.67
2018-05-12T01:04:49.655Z,28.67
2018-05-12T01:05:02.060Z,28.67
2018-05-12T01:05:14.490Z,28.67
2018-05-12T01:05:26.898Z,28.67
2018-05-12T01:05:39.303Z,28.67
2018-05-12T01:05:51.725Z,28.67
2018-05-12T01:06:04.243Z,28.67
2018-05-12T01:06:16.680Z,28.67
2018-05-12T01:06:29.081Z,28.67
2018-05-12T01:06:41.503Z,28.67
2018-05-12T01:06:53.922Z,28.67
2018-05-12T01:07:06.354Z,28.67
2018-05-12T01:07:18.775Z,28.67
2018-05-12T01:07:31.224Z,28.67
2018-05-12T01:07:43.635Z,28.67
2018-05-12T01:07:56.055Z,28.67
2018-05-12T01:08:08.471Z,28.67
2018-05-12T01:08:20.883Z,28.67
2018-05-12T01:08:33.308Z,28.67
2018-05-12T01:08:45.705Z,28.67
2018-05-12T01:08:58.103Z,28.67
2018-05-12T01:09:10.520Z,28.67
2018-05-12T01:09:22.936Z,28.67
2018-05-12T01:09:35.395Z,28.67
2018-05-12T01:09:47.798Z,28.67
2018-05-12T01:10:00.208Z,28.67
2018-05-12T01:10:12.637Z,29.25
2018-05-12T01:10:25.047Z,29.25
2018-05-12T01:10:37.462Z,29.25
2018-05-12T01:10:49.975Z,29.25
2018-05-12T01:11:02.391Z,29.25
2018-05-12T01:11:14.814Z,29.25
2018-05-12T01:11:27.233Z,29.25
2018-05-12T01:11:39.707Z,29.25
2018-05-12T01:11:52.142Z,29.25
2018-05-12T01:12:04.569Z,29.25
2018-05-12T01:12:16.986Z,29.25
2018-05-12T01:12:29.403Z,29.25
2018-05-12T01:12:41.801Z,29.25
2018-05-12T01:12:54.300Z,29.25
2018-05-12T01:13:06.727Z,29.25
2018-05-12T01:13:19.136Z,29.25
2018-05-12T01:13:31.733Z,29.25
2018-05-12T01:13:45.275Z,29.25
2018-05-12T01:13:57.687Z,29.25
2018-05-12T01:14:10.199Z,29.25
2018-05-12T01:14:22.633Z,29.25
2018-05-12T01:14:35.036Z,29.25
2018-05-12T01:14:47.465Z,29.25
2018-05-12T01:14:59.881Z,29.25
2018-05-12T01:15:12.296Z,29.25
2018-05-12T01:15:24.719Z,29.25
2018-05-12T01:15:37.463Z,29.25
2018-05-12T01:15:49.878Z,29.25
2018-05-12T01:16:02.280Z,29.25
2018-05-12T01:16:14.686Z,29.25
2018-05-12T01:16:27.117Z,29.25
2018-05-12T01:16:39.528Z,29.25
2018-05-12T01:16:51.947Z,29.25
2018-05-12T01:17:04.379Z,29.25
2018-05-12T01:17:16.789Z,29.25
2018-05-12T01:17:29.355Z,29.25
2018-05-12T01:17:41.769Z,29.25
2018-05-12T01:17:54.189Z,29.25
2018-05-12T01:18:06.663Z,29.25
2018-05-12T01:18:19.209Z,29.25
2018-05-12T01:18:31.631Z,29.25
2018-05-12T01:18:44.049Z,29.25
2018-05-12T01:18:56.463Z,29.25
2018-05-12T01:19:08.889Z,29.25
2018-05-12T01:19:21.382Z,29.25
2018-05-12T01:19:33.819Z,29.25
2018-05-12T01:19:46.231Z,29.25
2018-05-12T01:19:58.648Z,29.25
2018-05-12T01:20:11.068Z,29.9
2018-05-12T01:20:23.529Z,29.9
2018-05-12T01:20:36.113Z,29.9
2018-05-12T01:20:48.528Z,29.9
2018-05-12T01:21:00.946Z,29.9
2018-05-12T01:21:13.374Z,29.9
2018-05-12T01:21:25.783Z,29.9
2018-05-12T01:21:38.192Z,29.9
2018-05-12T01:21:50.592Z,29.9
2018-05-12T01:22:03.004Z,29.9
2018-05-12T01:22:15.437Z,29.9
2018-05-12T01:22:27.844Z,29.9
2018-05-12T01:22:40.257Z,29.9
2018-05-12T01:22:52.663Z,29.9
2018-05-12T01:23:05.082Z,29.9
2018-05-12T01:23:17.567Z,29.9
2018-05-12T01:23:29.985Z,29.9
2018-05-12T01:23:42.411Z,29.9
2018-05-12T01:23:54.924Z,29.9
2018-05-12T01:24:07.336Z,29.9
2018-05-12T01:24:19.765Z,29.9
2018-05-12T01:24:32.187Z,29.9
2018-05-12T01:24:44.734Z,29.9
2018-05-12T01:24:57.245Z,29.9
2018-05-12T01:25:09.727Z,29.9
2018-05-12T01:25:22.152Z,29.9
2018-05-12T01:25:34.578Z,29.9
2018-05-12T01:25:46.985Z,29.9
2018-05-12T01:25:59.395Z,29.9
2018-05-12T01:26:11.825Z,29.9
2018-05-12T01:26:24.323Z,29.9
2018-05-12T01:26:36.727Z,29.9
2018-05-12T01:26:49.142Z,29.9
2018-05-12T01:27:01.545Z,29.9
2018-05-12T01:27:13.956Z,29.9
2018-05-12T01:27:26.358Z,29.9
2018-05-12T01:27:38.770Z,29.9
2018-05-12T01:27:51.260Z,29.9
2018-05-12T01:28:03.688Z,29.9
2018-05-12T01:28:16.096Z,29.9
2018-05-12T01:28:28.534Z,29.9
2018-05-12T01:28:40.947Z,29.9
2018-05-12T01:28:53.464Z,29.9
2018-05-12T01:29:05.880Z,29.9
2018-05-12T01:29:18.287Z,29.9
2018-05-12T01:29:30.697Z,29.9
2018-05-12T01:29:43.107Z,29.9
2018-05-12T01:29:55.545Z,29.9
2018-05-12T01:30:07.975Z,29.9
2018-05-12T01:30:20.391Z,30.56
2018-05-12T01:30:32.810Z,30.56
2018-05-12T01:30:45.247Z,30.56
2018-05-12T01:30:57.722Z,30.56
2018-05-12T01:31:10.195Z,30.56
2018-05-12T01:31:22.711Z,30.56
2018-05-12T01:31:35.125Z,30.56
2018-05-12T01:31:47.626Z,30.56
2018-05-12T01:32:00.043Z,30.56
2018-05-12T01:32:12.455Z,30.56
2018-05-12T01:32:24.890Z,30.56
2018-05-12T01:32:37.293Z,30.56
2018-05-12T01:32:49.708Z,30.56
2018-05-12T01:33:02.163Z,30.56
2018-05-12T01:33:14.603Z,30.56
2018-05-12T01:33:27.001Z,30.56
2018-05-12T01:33:39.500Z,30.56
2018-05-12T01:33:51.924Z,30.56
2018-05-12T01:34:04.339Z,30.56
2018-05-12T01:34:16.756Z,30.56
2018-05-12T01:34:29.193Z,30.56
2018-05-12T01:34:41.604Z,30.56
2018-05-12T01:34:54.137Z,30.56
2018-05-12T01:35:06.627Z,30.56
2018-05-12T01:35:19.069Z,30.56
2018-05-12T01:35:31.486Z,30.56
2018-05-12T01:35:43.902Z,30.56
2018-05-12T01:35:56.327Z,30.56
2018-05-12T01:36:08.738Z,30.56
2018-05-12T01:36:21.136Z,30.56
2018-05-12T01:36:33.547Z,30.56
2018-05-12T01:36:45.961Z,30.56
2018-05-12T01:36:58.362Z,30.56
2018-05-12T01:37:10.780Z,30.56
2018-05-12T01:37:23.216Z,30.56
2018-05-12T01:37:35.633Z,30.56
2018-05-12T01:37:48.044Z,30.56
2018-05-12T01:38:00.478Z,30.56
2018-05-12T01:38:12.889Z,30.56
2018-05-12T01:38:25.420Z,30.56
2018-05-12T01:38:37.867Z,30.56
2018-05-12T01:38:50.287Z,30.56
2018-05-12T01:39:02.705Z,30.56
2018-05-12T01:39:15.138Z,30.56
2018-05-12T01:39:27.588Z,30.56
2018-05-12T01:39:40.032Z,30.56
2018-05-12T01:39:52.703Z,30.56
2018-05-12T01:40:05.115Z,30.56
2018-05-12T01:40:17.521Z,26.95
2018-05-12T01:40:29.954Z,26.95
2018-05-12T01:40:42.366Z,26.95
2018-05-12T01:40:54.808Z,26.95
2018-05-12T01:41:07.218Z,26.95
2018-05-12T01:41:19.638Z,26.95
2018-05-12T01:41:32.133Z,26.95
2018-05-12T01:41:44.564Z,26.95
2018-05-12T01:41:56.977Z,26.95
2018-05-12T01:42:09.397Z,26.95
2018-05-12T01:42:21.818Z,26.95
2018-05-12T01:42:34.221Z,26.95
2018-05-12T01:42:46.633Z,26.95
2018-05-12T01:42:59.057Z,26.95
2018-05-12T01:43:11.489Z,26.95
2018-05-12T01:43:23.921Z,26.95
2018-05-12T01:43:36.332Z,26.95
2018-05-12T01:43:48.749Z,26.95
2018-05-12T01:44:01.163Z,26.95
2018-05-12T01:44:13.599Z,26.95
2018-05-12T01:44:26.014Z,26.95
2018-05-12T01:44:38.431Z,26.95
2018-05-12T01:44:50.864Z,26.95
2018-05-12T01:45:03.281Z,26.95
2018-05-12T01:45:15.693Z,26.95
2018-05-12T01:45:28.112Z,26.95
2018-05-12T01:45:40.525Z,26.95
2018-05-12T01:45:52.945Z,26.95
2018-05-12T01:46:05.361Z,26.95
2018-05-12T01:46:17.805Z,26.95
2018-05-12T01:46:30.285Z,26.95
2018-05-12T01:46:42.706Z,26.95
2018-05-12T01:46:55.121Z,26.95
2018-05-12T01:47:07.551Z,26.95
2018-05-12T01:47:19.962Z,26.95
2018-05-12T01:47:32.385Z,26.95
2018-05-12T01:47:44.801Z,26.95
2018-05-12T01:47:57.209Z,26.95
2018-05-12T01:48:09.625Z,26.95
2018-05-12T01:48:22.185Z,26.95
2018-05-12T01:48:34.599Z,26.95
2018-05-12T01:48:47.000Z,26.95
2018-05-12T01:48:59.960Z,26.95
2018-05-12T01:49:12.383Z,26.95
2018-05-12T01:49:24.800Z,26.95
2018-05-12T01:49:37.278Z,26.95
2018-05-12T01:49:49.692Z,26.95
2018-05-12T01:50:02.114Z,26.95
2018-05-12T01:50:14.545Z,28.59
2018-05-12T01:50:26.966Z,28.59
2018-05-12T01:50:39.394Z,28.59
2018-05-12T01:50:51.798Z,28.59
2018-05-12T01:51:04.201Z,28.59
2018-05-12T01:51:16.627Z,28.59
2018-05-12T01:51:29.023Z,28.59
2018-05-12T01:51:41.450Z,28.59
2018-05-12T01:51:53.861Z,28.59
2018-05-12T01:52:06.299Z,28.59
2018-05-12T01:52:18.840Z,28.59
2018-05-12T01:52:31.268Z,28.59
2018-05-12T01:52:43.678Z,28.59
2018-05-12T01:52:56.089Z,28.59
2018-05-12T01:53:08.593Z,28.59
2018-05-12T01:53:21.178Z,28.59
2018-05-12T01:53:33.612Z,28.59
2018-05-12T01:53:46.011Z,28.59
2018-05-12T01:53:58.418Z,28.59
2018-05-12T01:54:10.824Z,28.59
2018-05-12T01:54:23.243Z,28.59
2018-05-12T01:54:35.648Z,28.59
2018-05-12T01:54:48.060Z,28.59
2018-05-12T01:55:00.469Z,28.59
2018-05-12T01:55:12.891Z,28.59
2018-05-12T01:55:25.304Z,28.59
2018-05-12T01:55:37.726Z,28.59
2018-05-12T01:55:50.161Z,28.59
2018-05-12T01:56:02.579Z,28.59
2018-05-12T01:56:14.998Z,28.59
2018-05-12T01:56:27.497Z,28.59
2018-05-12T01:56:39.912Z,28.59
2018-05-12T01:56:52.362Z,28.59
2018-05-12T01:57:04.781Z,28.59
2018-05-12T01:57:17.336Z,28.59
2018-05-12T01:57:29.749Z,28.59
2018-05-12T01:57:42.157Z,28.59
2018-05-12T01:57:54.575Z,28.59
2018-05-12T01:58:07.025Z,28.59
2018-05-12T01:58:19.444Z,28.59
2018-05-12T01:58:31.844Z,28.59
2018-05-12T01:58:44.256Z,28.59
2018-05-12T01:58:56.668Z,28.59
2018-05-12T01:59:09.077Z,28.59
2018-05-12T01:59:21.485Z,28.59
2018-05-12T01:59:33.908Z,28.59
2018-05-12T01:59:46.315Z,28.59
2018-05-12T01:59:58.725Z,28.59
2018-05-12T02:00:11.142Z,28.59
2018-05-12T02:00:23.599Z,28.53
2018-05-12T02:00:36.035Z,28.53
2018-05-12T02:00:48.486Z,28.53
2018-05-12T02:01:00.910Z,28.53
2018-05-12T02:01:13.335Z,28.53
2018-05-12T02:01:25.749Z,28.53
2018-05-12T02:01:38.158Z,28.53
2018-05-12T02:01:50.563Z,28.53
2018-05-12T02:02:02.986Z,28.53
2018-05-12T02:02:15.534Z,28.53
2018-05-12T02:02:27.946Z,28.53
2018-05-12T02:02:40.357Z,28.53
2018-05-12T02:02:52.778Z,28.53
2018-05-12T02:03:05.218Z,28.53
2018-05-12T02:03:17.630Z,28.53
2018-05-12T02:03:30.044Z,28.53
2018-05-12T02:03:42.463Z,28.53
2018-05-12T02:03:54.906Z,28.53
2018-05-12T02:04:07.314Z,28.53
2018-05-12T02:04:19.747Z,28.53
2018-05-12T02:04:32.173Z,28.53
2018-05-12T02:04:44.585Z,28.53
2018-05-12T02:04:56.999Z,28.53
2018-05-12T02:05:09.524Z,28.53
2018-05-12T02:05:21.941Z,28.53
2018-05-12T02:05:34.352Z,28.53
2018-05-12T02:05:46.776Z,28.53
2018-05-12T02:05:59.173Z,28.53
2018-05-12T02:06:11.581Z,28.53
2018-05-12T02:06:23.997Z,28.53
2018-05-12T02:06:36.395Z,28.53
2018-05-12T02:06:48.814Z,28.53
2018-05-12T02:07:01.217Z,28.53
2018-05-12T02:07:13.678Z,28.53
2018-05-12T02:07:26.083Z,28.53
2018-05-12T02:07:38.540Z,28.53
2018-05-12T02:07:50.954Z,28.53
2018-05-12T02:08:03.451Z,28.53
2018-05-12T02:08:15.862Z,28.53
2018-05-12T02:08:28.280Z,28.53
2018-05-12T02:08:40.694Z,28.53
2018-05-12T02:08:53.110Z,28.53
2018-05-12T02:09:05.503Z,28.53
2018-05-12T02:09:17.933Z,28.53
2018-05-12T02:09:30.391Z,28.53
2018-05-12T02:09:42.806Z,28.53
2018-05-12T02:09:55.220Z,28.53
2018-05-12T02:10:07.641Z,28.53
2018-05-12T02:10:20.058Z,27.86
2018-05-12T02:10:32.560Z,27.86
2018-05-12T02:10:44.979Z,27.86
2018-05-12T02:10:57.377Z,27.86
2018-05-12T02:11:09.787Z,27.86
2018-05-12T02:11:22.201Z,27.86
2018-05-12T02:11:34.796Z,27.86
2018-05-12T02:11:47.227Z,27.86
2018-05-12T02:11:59.626Z,27.86
2018-05-12T02:12:12.135Z,27.86
2018-05-12T02:12:24.549Z,27.86
2018-05-12T02:12:36.965Z,27.86
2018-05-12T02:12:49.372Z,27.86
2018-05-12T02:13:01.868Z,27.86
2018-05-12T02:13:14.284Z,27.86
2018-05-12T02:13:26.702Z,27.86
2018-05-12T02:13:39.115Z,27.86
2018-05-12T02:13:51.524Z,27.86
2018-05-12T02:14:03.940Z,27.86
2018-05-12T02:14:16.359Z,27.86
2018-05-12T02:14:28.758Z,27.86
2018-05-12T02:14:41.167Z,27.86
2018-05-12T02:14:53.655Z,27.86
2018-05-12T02:15:06.062Z,27.86
2018-05-12T02:15:18.470Z,27.86
2018-05-12T02:15:31.154Z,27.86
2018-05-12T02:15:43.574Z,27.86
2018-05-12T02:15:56.080Z,27.86
2018-05-12T02:16:08.482Z,27.86
2018-05-12T02:16:20.901Z,27.86
2018-05-12T02:16:33.319Z,27.86
2018-05-12T02:16:45.742Z,27.86
2018-05-12T02:16:58.154Z,27.86
2018-05-12T02:17:10.561Z,27.86
2018-05-12T02:17:22.967Z,27.86
2018-05-12T02:17:35.452Z,27.86
2018-05-12T02:17:47.860Z,27.86
2018-05-12T02:18:00.263Z,27.86
2018-05-12T02:18:12.722Z,27.86
2018-05-12T02:18:25.299Z,27.86
2018-05-12T02:18:37.697Z,27.86
2018-05-12T02:18:50.117Z,27.86
2018-05-12T02:19:02.521Z,27.86
2018-05-12T02:19:15.005Z,27.86
2018-05-12T02:19:27.415Z,27.86
2018-05-12T02:19:39.913Z,27.86
2018-05-12T02:19:52.340Z,27.86
2018-05-12T02:20:04.766Z,27.86
2018-05-12T02:20:17.181Z,27.69
2018-05-12T02:20:29.613Z,27.69
2018-05-12T02:20:42.105Z,27.69
2018-05-12T02:20:54.611Z,27.69
2018-05-12T02:21:07.009Z,27.69
2018-05-12T02:21:19.415Z,27.69
2018-05-12T02:21:31.820Z,27.69
2018-05-12T02:21:44.238Z,27.69
2018-05-12T02:21:56.643Z,27.69
2018-05-12T02:22:09.049Z,27.69
2018-05-12T02:22:21.458Z,27.69
2018-05-12T02:22:33.945Z,27.69
2018-05-12T02:22:46.362Z,27.69
2018-05-12T02:22:58.821Z,27.69
2018-05-12T02:23:11.231Z,27.69
2018-05-12T02:23:23.730Z,27.69
2018-05-12T02:23:36.137Z,27.69
2018-05-12T02:23:48.548Z,27.69
2018-05-12T02:24:00.951Z,27.69
2018-05-12T02:24:13.374Z,27.69
2018-05-12T02:24:25.789Z,27.69
2018-05-12T02:24:38.203Z,27.69
2018-05-12T02:24:50.897Z,27.69
2018-05-12T02:25:03.312Z,27.69
2018-05-12T02:25:15.743Z,27.69
2018-05-12T02:25:28.168Z,27.69
2018-05-12T02:25:40.570Z,27.69
2018-05-12T02:25:52.977Z,27.69
2018-05-12T02:26:05.388Z,27.69
2018-05-12T02:26:17.799Z,27.69
2018-05-12T02:26:30.218Z,27.69
2018-05-12T02:26:42.635Z,27.69
2018-05-12T02:26:55.044Z,27.69
2018-05-12T02:27:07.478Z,27.69
2018-05-12T02:27:19.884Z,27.69
2018-05-12T02:27:32.293Z,27.69
2018-05-12T02:27:44.705Z,27.69
2018-05-12T02:27:57.118Z,27.69
2018-05-12T02:28:09.535Z,27.69
2018-05-12T02:28:21.959Z,27.69
2018-05-12T02:28:34.406Z,27.69
2018-05-12T02:28:46.975Z,27.69
2018-05-12T02:28:59.392Z,27.69
2018-05-12T02:29:11.808Z,27.69
2018-05-12T02:29:24.326Z,27.69
2018-05-12T02:29:36.814Z,27.69
2018-05-12T02:29:49.234Z,27.69
2018-05-12T02:30:01.651Z,27.69
2018-05-12T02:30:14.121Z,27.69
2018-05-12T02:30:27.353Z,26.92
2018-05-12T02:30:40.459Z,26.92
2018-05-12T02:30:52.893Z,26.92
2018-05-12T02:31:05.403Z,26.92
2018-05-12T02:31:17.830Z,26.92
2018-05-12T02:31:30.276Z,26.92
2018-05-12T02:31:42.694Z,26.92
2018-05-12T02:31:55.124Z,26.92
2018-05-12T02:32:07.619Z,26.92
2018-05-12T02:32:20.056Z,26.92
2018-05-12T02:32:32.592Z,26.92
2018-05-12T02:32:45.039Z,26.92
2018-05-12T02:32:57.499Z,26.92
2018-05-12T02:33:09.944Z,26.92
2018-05-12T02:33:22.392Z,26.92
2018-05-12T02:33:34.836Z,26.92
2018-05-12T02:33:48.460Z,26.92
2018-05-12T02:34:02.111Z,26.92
2018-05-12T02:34:14.789Z,26.92
2018-05-12T02:34:27.472Z,26.92
2018-05-12T02:34:40.174Z,26.92
2018-05-12T02:34:52.864Z,26.92
2018-05-12T02:35:05.539Z,26.92
2018-05-12T02:35:18.220Z,26.92
2018-05-12T02:35:30.910Z,26.92
2018-05-12T02:35:43.592Z,26.92
2018-05-12T02:35:56.294Z,26.92
2018-05-12T02:36:09.037Z,26.92
2018-05-12T02:36:21.748Z,26.92
2018-05-12T02:36:34.223Z,26.92
2018-05-12T02:36:46.670Z,26.92
2018-05-12T02:36:59.069Z,26.92
2018-05-12T02:37:11.480Z,26.92
2018-05-12T02:37:23.888Z,26.92
2018-05-12T02:37:36.332Z,26.92
2018-05-12T02:37:48.724Z,26.92
2018-05-12T02:38:01.125Z,26.92
2018-05-12T02:38:13.544Z,26.92
2018-05-12T02:38:25.975Z,26.92
2018-05-12T02:38:38.497Z,26.92
2018-05-12T02:38:50.981Z,26.92
2018-05-12T02:39:03.408Z,26.92
2018-05-12T02:39:15.839Z,26.92
2018-05-12T02:39:28.292Z,26.92
2018-05-12T02:39:40.690Z,26.92
2018-05-12T02:39:53.095Z,26.92
2018-05-12T02:40:05.560Z,26.92
2018-05-12T02:40:17.983Z,30.73
2018-05-12T02:40:30.427Z,30.73
2018-05-12T02:40:42.842Z,30.73
2018-05-12T02:40:55.284Z,30.73